sensor_id;sensor_type;location;lat;lon;timestamp;P1;durP1;ratioP1;P2;durP2;ratioP2
50231;SDS011;36118;56.468;84.952;2023-06-14T00:00:50;6.75;;;4.20;;
50231;SDS011;36118;56.468;84.952;2023-06-14T00:10:59;7.97;;;3.50;;
50231;SDS011;36118;56.468;84.952;2023-06-14T00:16:03;7.28;;;3.42;;
50231;SDS011;36118;56.468;84.952;2023-06-14T00:21:07;5.57;;;4.00;;
50231;SDS011;36118;56.468;84.952;2023-06-14T00:26:10;6.05;;;4.30;;
50231;SDS011;36118;56.468;84.952;2023-06-14T00:31:14;8.13;;;3.80;;
50231;SDS011;36118;56.468;84.952;2023-06-14T00:36:17;8.60;;;4.05;;
50231;SDS011;36118;56.468;84.952;2023-06-14T00:41:21;7.93;;;3.78;;
50231;SDS011;36118;56.468;84.952;2023-06-14T00:46:24;5.82;;;3.85;;
50231;SDS011;36118;56.468;84.952;2023-06-14T00:51:29;5.38;;;3.78;;
50231;SDS011;36118;56.468;84.952;2023-06-14T00:56:35;5.90;;;4.10;;
50231;SDS011;36118;56.468;84.952;2023-06-14T01:01:39;6.28;;;4.78;;
50231;SDS011;36118;56.468;84.952;2023-06-14T01:06:49;12.23;;;6.30;;
50231;SDS011;36118;56.468;84.952;2023-06-14T01:12:11;9.88;;;7.95;;
50231;SDS011;36118;56.468;84.952;2023-06-14T01:17:19;9.68;;;5.50;;
50231;SDS011;36118;56.468;84.952;2023-06-14T01:22:27;8.30;;;4.40;;
50231;SDS011;36118;56.468;84.952;2023-06-14T01:27:31;7.65;;;4.45;;
50231;SDS011;36118;56.468;84.952;2023-06-14T01:32:35;8.43;;;4.72;;
50231;SDS011;36118;56.468;84.952;2023-06-14T01:37:39;9.68;;;3.97;;
50231;SDS011;36118;56.468;84.952;2023-06-14T01:42:43;9.88;;;4.88;;
50231;SDS011;36118;56.468;84.952;2023-06-14T01:47:49;10.07;;;4.35;;
50231;SDS011;36118;56.468;84.952;2023-06-14T01:52:54;7.63;;;4.10;;
50231;SDS011;36118;56.468;84.952;2023-06-14T01:57:59;9.88;;;4.40;;
50231;SDS011;36118;56.468;84.952;2023-06-14T02:03:02;4.85;;;4.07;;
50231;SDS011;36118;56.468;84.952;2023-06-14T02:08:09;8.13;;;4.43;;
50231;SDS011;36118;56.468;84.952;2023-06-14T02:13:13;5.60;;;3.83;;
50231;SDS011;36118;56.468;84.952;2023-06-14T02:18:17;8.75;;;4.20;;
50231;SDS011;36118;56.468;84.952;2023-06-14T02:23:42;5.65;;;3.90;;
50231;SDS011;36118;56.468;84.952;2023-06-14T02:28:46;5.60;;;3.80;;
50231;SDS011;36118;56.468;84.952;2023-06-14T02:33:49;4.78;;;3.60;;
50231;SDS011;36118;56.468;84.952;2023-06-14T02:44:00;5.15;;;3.40;;
50231;SDS011;36118;56.468;84.952;2023-06-14T02:49:03;4.63;;;3.72;;
50231;SDS011;36118;56.468;84.952;2023-06-14T02:54:07;4.28;;;3.50;;
50231;SDS011;36118;56.468;84.952;2023-06-14T02:59:13;7.65;;;3.92;;
50231;SDS011;36118;56.468;84.952;2023-06-14T03:04:17;5.47;;;3.63;;
50231;SDS011;36118;56.468;84.952;2023-06-14T03:09:21;6.07;;;3.70;;
50231;SDS011;36118;56.468;84.952;2023-06-14T03:14:26;4.35;;;3.70;;
50231;SDS011;36118;56.468;84.952;2023-06-14T03:19:29;5.85;;;3.72;;
50231;SDS011;36118;56.468;84.952;2023-06-14T03:24:52;6.45;;;3.70;;
50231;SDS011;36118;56.468;84.952;2023-06-14T03:29:57;4.60;;;3.83;;
50231;SDS011;36118;56.468;84.952;2023-06-14T03:35:00;4.78;;;3.85;;
50231;SDS011;36118;56.468;84.952;2023-06-14T03:40:04;5.70;;;3.55;;
50231;SDS011;36118;56.468;84.952;2023-06-14T03:45:15;5.47;;;3.53;;
50231;SDS011;36118;56.468;84.952;2023-06-14T03:50:18;4.93;;;2.63;;
50231;SDS011;36118;56.468;84.952;2023-06-14T03:55:22;4.63;;;2.65;;
50231;SDS011;36118;56.468;84.952;2023-06-14T04:00:30;5.45;;;3.20;;
50231;SDS011;36118;56.468;84.952;2023-06-14T04:10:40;3.80;;;3.07;;
50231;SDS011;36118;56.468;84.952;2023-06-14T04:15:43;4.70;;;2.50;;
50231;SDS011;36118;56.468;84.952;2023-06-14T04:20:54;4.13;;;2.05;;
50231;SDS011;36118;56.468;84.952;2023-06-14T04:26:00;5.68;;;1.70;;
50231;SDS011;36118;56.468;84.952;2023-06-14T04:36:12;2.83;;;1.60;;
50231;SDS011;36118;56.468;84.952;2023-06-14T04:41:16;2.33;;;1.38;;
50231;SDS011;36118;56.468;84.952;2023-06-14T04:46:19;2.33;;;1.05;;
50231;SDS011;36118;56.468;84.952;2023-06-14T04:51:24;3.10;;;1.73;;
50231;SDS011;36118;56.468;84.952;2023-06-14T04:56:32;2.72;;;1.70;;
50231;SDS011;36118;56.468;84.952;2023-06-14T05:01:35;6.68;;;1.77;;
50231;SDS011;36118;56.468;84.952;2023-06-14T05:06:39;6.43;;;1.58;;
50231;SDS011;36118;56.468;84.952;2023-06-14T05:11:43;4.18;;;1.40;;
50231;SDS011;36118;56.468;84.952;2023-06-14T05:16:47;2.92;;;1.27;;
50231;SDS011;36118;56.468;84.952;2023-06-14T05:21:51;3.53;;;1.40;;
50231;SDS011;36118;56.468;84.952;2023-06-14T05:26:56;3.00;;;1.10;;
50231;SDS011;36118;56.468;84.952;2023-06-14T05:32:00;2.15;;;1.35;;
50231;SDS011;36118;56.468;84.952;2023-06-14T05:37:04;2.83;;;1.20;;
50231;SDS011;36118;56.468;84.952;2023-06-14T05:42:08;2.10;;;1.50;;
50231;SDS011;36118;56.468;84.952;2023-06-14T05:47:11;3.38;;;1.30;;
50231;SDS011;36118;56.468;84.952;2023-06-14T05:52:15;5.70;;;1.33;;
50231;SDS011;36118;56.468;84.952;2023-06-14T05:57:18;2.20;;;1.40;;
50231;SDS011;36118;56.468;84.952;2023-06-14T06:02:21;2.58;;;1.30;;
50231;SDS011;36118;56.468;84.952;2023-06-14T06:07:25;4.05;;;1.40;;
50231;SDS011;36118;56.468;84.952;2023-06-14T06:12:29;5.47;;;1.60;;
50231;SDS011;36118;56.468;84.952;2023-06-14T06:17:33;2.03;;;1.30;;
50231;SDS011;36118;56.468;84.952;2023-06-14T06:22:56;4.35;;;1.35;;
50231;SDS011;36118;56.468;84.952;2023-06-14T06:28:00;4.60;;;1.30;;
50231;SDS011;36118;56.468;84.952;2023-06-14T06:33:04;11.50;;;1.73;;
50231;SDS011;36118;56.468;84.952;2023-06-14T06:38:08;4.32;;;1.38;;
50231;SDS011;36118;56.468;84.952;2023-06-14T06:43:12;2.35;;;1.25;;
50231;SDS011;36118;56.468;84.952;2023-06-14T06:48:22;5.80;;;2.00;;
50231;SDS011;36118;56.468;84.952;2023-06-14T06:53:26;4.22;;;1.77;;
50231;SDS011;36118;56.468;84.952;2023-06-14T06:58:42;3.20;;;1.80;;
50231;SDS011;36118;56.468;84.952;2023-06-14T07:03:46;2.60;;;1.17;;
50231;SDS011;36118;56.468;84.952;2023-06-14T07:08:50;4.82;;;1.23;;
50231;SDS011;36118;56.468;84.952;2023-06-14T07:13:53;2.80;;;0.82;;
50231;SDS011;36118;56.468;84.952;2023-06-14T07:18:56;1.95;;;1.00;;
50231;SDS011;36118;56.468;84.952;2023-06-14T07:24:00;1.75;;;0.77;;
50231;SDS011;36118;56.468;84.952;2023-06-14T07:29:04;3.07;;;0.90;;
50231;SDS011;36118;56.468;84.952;2023-06-14T07:34:07;5.32;;;1.10;;
50231;SDS011;36118;56.468;84.952;2023-06-14T07:39:11;1.52;;;0.85;;
50231;SDS011;36118;56.468;84.952;2023-06-14T07:44:15;2.50;;;1.10;;
50231;SDS011;36118;56.468;84.952;2023-06-14T07:49:18;2.83;;;1.08;;
50231;SDS011;36118;56.468;84.952;2023-06-14T07:54:22;6.35;;;1.30;;
50231;SDS011;36118;56.468;84.952;2023-06-14T07:59:29;5.10;;;1.30;;
50231;SDS011;36118;56.468;84.952;2023-06-14T08:04:32;2.50;;;1.00;;
50231;SDS011;36118;56.468;84.952;2023-06-14T08:09:36;4.20;;;1.13;;
50231;SDS011;36118;56.468;84.952;2023-06-14T08:14:42;4.10;;;1.38;;
50231;SDS011;36118;56.468;84.952;2023-06-14T08:19:45;3.80;;;1.42;;
50231;SDS011;36118;56.468;84.952;2023-06-14T08:24:49;4.28;;;1.40;;
50231;SDS011;36118;56.468;84.952;2023-06-14T08:29:51;3.42;;;1.60;;
50231;SDS011;36118;56.468;84.952;2023-06-14T08:34:55;4.15;;;1.27;;
50231;SDS011;36118;56.468;84.952;2023-06-14T08:40:27;3.67;;;1.23;;
50231;SDS011;36118;56.468;84.952;2023-06-14T08:45:30;3.63;;;1.40;;
50231;SDS011;36118;56.468;84.952;2023-06-14T08:50:33;2.38;;;1.05;;
50231;SDS011;36118;56.468;84.952;2023-06-14T08:55:37;2.95;;;1.27;;
50231;SDS011;36118;56.468;84.952;2023-06-14T09:00:45;2.30;;;1.10;;
50231;SDS011;36118;56.468;84.952;2023-06-14T09:05:49;3.83;;;1.40;;
50231;SDS011;36118;56.468;84.952;2023-06-14T09:10:52;3.97;;;1.20;;
50231;SDS011;36118;56.468;84.952;2023-06-14T09:15:55;6.47;;;1.20;;
50231;SDS011;36118;56.468;84.952;2023-06-14T09:20:59;3.80;;;1.10;;
50231;SDS011;36118;56.468;84.952;2023-06-14T09:26:05;4.57;;;1.40;;
50231;SDS011;36118;56.468;84.952;2023-06-14T09:31:10;2.67;;;1.10;;
50231;SDS011;36118;56.468;84.952;2023-06-14T09:36:15;3.88;;;0.95;;
50231;SDS011;36118;56.468;84.952;2023-06-14T09:41:31;3.53;;;1.20;;
50231;SDS011;36118;56.468;84.952;2023-06-14T09:46:36;3.38;;;1.02;;
50231;SDS011;36118;56.468;84.952;2023-06-14T09:51:42;3.95;;;1.30;;
50231;SDS011;36118;56.468;84.952;2023-06-14T09:56:46;3.97;;;1.50;;
50231;SDS011;36118;56.468;84.952;2023-06-14T10:01:51;5.50;;;1.42;;
50231;SDS011;36118;56.468;84.952;2023-06-14T10:06:54;3.92;;;1.20;;
50231;SDS011;36118;56.468;84.952;2023-06-14T10:11:57;5.10;;;1.45;;
50231;SDS011;36118;56.468;84.952;2023-06-14T10:17:02;3.63;;;1.40;;
50231;SDS011;36118;56.468;84.952;2023-06-14T10:22:09;5.57;;;1.45;;
50231;SDS011;36118;56.468;84.952;2023-06-14T10:27:14;7.55;;;2.50;;
50231;SDS011;36118;56.468;84.952;2023-06-14T10:32:20;3.90;;;1.70;;
50231;SDS011;36118;56.468;84.952;2023-06-14T10:37:24;6.47;;;1.27;;
50231;SDS011;36118;56.468;84.952;2023-06-14T10:42:28;4.35;;;1.30;;
50231;SDS011;36118;56.468;84.952;2023-06-14T10:47:34;7.07;;;1.60;;
50231;SDS011;36118;56.468;84.952;2023-06-14T10:52:40;3.67;;;1.50;;
50231;SDS011;36118;56.468;84.952;2023-06-14T10:57:49;4.70;;;1.30;;
50231;SDS011;36118;56.468;84.952;2023-06-14T11:08:20;2.33;;;1.30;;
50231;SDS011;36118;56.468;84.952;2023-06-14T11:13:33;3.15;;;1.50;;
50231;SDS011;36118;56.468;84.952;2023-06-14T11:18:37;4.07;;;1.60;;
50231;SDS011;36118;56.468;84.952;2023-06-14T11:23:39;4.22;;;1.90;;
50231;SDS011;36118;56.468;84.952;2023-06-14T11:28:43;6.93;;;1.80;;
50231;SDS011;36118;56.468;84.952;2023-06-14T11:33:49;7.05;;;1.88;;
50231;SDS011;36118;56.468;84.952;2023-06-14T11:39:05;3.25;;;1.73;;
50231;SDS011;36118;56.468;84.952;2023-06-14T11:44:12;4.25;;;2.00;;
50231;SDS011;36118;56.468;84.952;2023-06-14T11:49:15;4.90;;;1.90;;
50231;SDS011;36118;56.468;84.952;2023-06-14T11:54:18;3.63;;;2.10;;
50231;SDS011;36118;56.468;84.952;2023-06-14T11:59:22;5.75;;;2.30;;
50231;SDS011;36118;56.468;84.952;2023-06-14T12:04:26;6.35;;;2.50;;
50231;SDS011;36118;56.468;84.952;2023-06-14T12:09:29;6.07;;;2.23;;
50231;SDS011;36118;56.468;84.952;2023-06-14T12:14:34;4.82;;;2.20;;
50231;SDS011;36118;56.468;84.952;2023-06-14T12:19:42;4.63;;;2.50;;
50231;SDS011;36118;56.468;84.952;2023-06-14T12:24:46;5.78;;;2.75;;
50231;SDS011;36118;56.468;84.952;2023-06-14T12:29:58;4.82;;;2.42;;
50231;SDS011;36118;56.468;84.952;2023-06-14T12:35:06;6.15;;;2.70;;
50231;SDS011;36118;56.468;84.952;2023-06-14T12:40:09;5.57;;;2.40;;
50231;SDS011;36118;56.468;84.952;2023-06-14T12:45:13;4.65;;;2.58;;
50231;SDS011;36118;56.468;84.952;2023-06-14T12:50:17;7.20;;;3.17;;
50231;SDS011;36118;56.468;84.952;2023-06-14T13:00:25;6.13;;;2.80;;
50231;SDS011;36118;56.468;84.952;2023-06-14T13:05:28;3.42;;;2.30;;
50231;SDS011;36118;56.468;84.952;2023-06-14T13:10:34;4.72;;;2.35;;
50231;SDS011;36118;56.468;84.952;2023-06-14T13:15:37;5.47;;;2.60;;
50231;SDS011;36118;56.468;84.952;2023-06-14T13:20:41;3.90;;;2.33;;
50231;SDS011;36118;56.468;84.952;2023-06-14T13:25:45;4.93;;;2.67;;
50231;SDS011;36118;56.468;84.952;2023-06-14T13:30:48;3.22;;;2.17;;
50231;SDS011;36118;56.468;84.952;2023-06-14T13:35:51;5.75;;;2.25;;
50231;SDS011;36118;56.468;84.952;2023-06-14T13:40:55;3.97;;;2.47;;
50231;SDS011;36118;56.468;84.952;2023-06-14T13:45:58;5.38;;;2.50;;
50231;SDS011;36118;56.468;84.952;2023-06-14T13:51:02;8.40;;;3.05;;
50231;SDS011;36118;56.468;84.952;2023-06-14T13:56:07;13.68;;;3.85;;
50231;SDS011;36118;56.468;84.952;2023-06-14T14:01:10;6.43;;;3.42;;
50231;SDS011;36118;56.468;84.952;2023-06-14T14:06:15;8.88;;;3.83;;
50231;SDS011;36118;56.468;84.952;2023-06-14T14:11:21;4.75;;;2.80;;
50231;SDS011;36118;56.468;84.952;2023-06-14T14:16:24;4.18;;;2.58;;
50231;SDS011;36118;56.468;84.952;2023-06-14T14:21:28;6.55;;;2.85;;
50231;SDS011;36118;56.468;84.952;2023-06-14T14:26:32;4.65;;;2.60;;
50231;SDS011;36118;56.468;84.952;2023-06-14T14:31:35;6.88;;;3.10;;
50231;SDS011;36118;56.468;84.952;2023-06-14T14:36:38;6.07;;;3.40;;
50231;SDS011;36118;56.468;84.952;2023-06-14T14:41:45;8.57;;;3.85;;
50231;SDS011;36118;56.468;84.952;2023-06-14T14:46:48;8.20;;;3.92;;
50231;SDS011;36118;56.468;84.952;2023-06-14T14:51:53;18.80;;;4.30;;
50231;SDS011;36118;56.468;84.952;2023-06-14T14:57:16;7.10;;;3.20;;
50231;SDS011;36118;56.468;84.952;2023-06-14T15:02:20;6.10;;;3.20;;
50231;SDS011;36118;56.468;84.952;2023-06-14T15:07:25;6.60;;;2.80;;
50231;SDS011;36118;56.468;84.952;2023-06-14T15:12:29;5.93;;;3.13;;
50231;SDS011;36118;56.468;84.952;2023-06-14T15:17:33;5.82;;;3.97;;
50231;SDS011;36118;56.468;84.952;2023-06-14T15:22:37;8.52;;;4.00;;
50231;SDS011;36118;56.468;84.952;2023-06-14T15:27:41;9.48;;;4.45;;
50231;SDS011;36118;56.468;84.952;2023-06-14T15:32:44;9.50;;;4.70;;
50231;SDS011;36118;56.468;84.952;2023-06-14T15:37:48;9.07;;;4.22;;
50231;SDS011;36118;56.468;84.952;2023-06-14T15:42:53;12.77;;;4.50;;
50231;SDS011;36118;56.468;84.952;2023-06-14T15:47:56;9.95;;;4.10;;
50231;SDS011;36118;56.468;84.952;2023-06-14T15:53:01;8.57;;;3.75;;
50231;SDS011;36118;56.468;84.952;2023-06-14T15:58:04;7.80;;;4.20;;
50231;SDS011;36118;56.468;84.952;2023-06-14T16:03:08;10.63;;;3.97;;
50231;SDS011;36118;56.468;84.952;2023-06-14T16:08:12;6.55;;;3.78;;
50231;SDS011;36118;56.468;84.952;2023-06-14T16:13:39;6.93;;;4.30;;
50231;SDS011;36118;56.468;84.952;2023-06-14T16:18:44;8.32;;;4.22;;
50231;SDS011;36118;56.468;84.952;2023-06-14T16:23:48;5.43;;;3.80;;
50231;SDS011;36118;56.468;84.952;2023-06-14T16:28:52;6.22;;;3.92;;
50231;SDS011;36118;56.468;84.952;2023-06-14T16:33:54;9.07;;;3.83;;
50231;SDS011;36118;56.468;84.952;2023-06-14T16:38:58;9.45;;;4.40;;
50231;SDS011;36118;56.468;84.952;2023-06-14T16:44:02;7.45;;;3.40;;
50231;SDS011;36118;56.468;84.952;2023-06-14T16:49:07;6.15;;;3.47;;
50231;SDS011;36118;56.468;84.952;2023-06-14T16:54:10;5.47;;;3.35;;
50231;SDS011;36118;56.468;84.952;2023-06-14T16:59:14;11.05;;;4.13;;
50231;SDS011;36118;56.468;84.952;2023-06-14T17:04:18;9.43;;;4.18;;
50231;SDS011;36118;56.468;84.952;2023-06-14T17:09:22;9.70;;;4.07;;
50231;SDS011;36118;56.468;84.952;2023-06-14T17:14:25;8.25;;;3.97;;
50231;SDS011;36118;56.468;84.952;2023-06-14T17:19:27;10.63;;;3.85;;
50231;SDS011;36118;56.468;84.952;2023-06-14T17:24:31;9.30;;;3.80;;
50231;SDS011;36118;56.468;84.952;2023-06-14T17:29:34;5.95;;;3.22;;
50231;SDS011;36118;56.468;84.952;2023-06-14T17:34:37;8.25;;;3.60;;
50231;SDS011;36118;56.468;84.952;2023-06-14T17:39:42;5.93;;;3.35;;
50231;SDS011;36118;56.468;84.952;2023-06-14T17:44:45;8.15;;;3.03;;
50231;SDS011;36118;56.468;84.952;2023-06-14T17:49:52;8.20;;;3.50;;
50231;SDS011;36118;56.468;84.952;2023-06-14T17:54:56;9.57;;;3.50;;
50231;SDS011;36118;56.468;84.952;2023-06-14T17:59:59;6.88;;;3.33;;
50231;SDS011;36118;56.468;84.952;2023-06-14T18:05:13;6.45;;;3.15;;
50231;SDS011;36118;56.468;84.952;2023-06-14T18:10:17;9.35;;;2.92;;
50231;SDS011;36118;56.468;84.952;2023-06-14T18:15:21;6.10;;;2.90;;
50231;SDS011;36118;56.468;84.952;2023-06-14T18:20:24;6.20;;;3.08;;
50231;SDS011;36118;56.468;84.952;2023-06-14T18:25:28;6.97;;;3.03;;
50231;SDS011;36118;56.468;84.952;2023-06-14T18:30:32;5.70;;;2.92;;
50231;SDS011;36118;56.468;84.952;2023-06-14T18:35:35;5.82;;;2.95;;
50231;SDS011;36118;56.468;84.952;2023-06-14T18:40:38;3.88;;;2.70;;
50231;SDS011;36118;56.468;84.952;2023-06-14T18:45:41;6.18;;;3.00;;
50231;SDS011;36118;56.468;84.952;2023-06-14T18:50:44;5.47;;;2.90;;
50231;SDS011;36118;56.468;84.952;2023-06-14T18:55:47;4.65;;;2.90;;
50231;SDS011;36118;56.468;84.952;2023-06-14T19:00:51;3.85;;;2.50;;
50231;SDS011;36118;56.468;84.952;2023-06-14T19:05:55;5.20;;;2.80;;
50231;SDS011;36118;56.468;84.952;2023-06-14T19:11:00;4.78;;;2.63;;
50231;SDS011;36118;56.468;84.952;2023-06-14T19:16:03;3.85;;;2.33;;
50231;SDS011;36118;56.468;84.952;2023-06-14T19:21:07;5.68;;;2.53;;
50231;SDS011;36118;56.468;84.952;2023-06-14T19:26:10;4.80;;;2.70;;
50231;SDS011;36118;56.468;84.952;2023-06-14T19:31:13;4.45;;;2.60;;
50231;SDS011;36118;56.468;84.952;2023-06-14T19:36:17;4.35;;;2.60;;
50231;SDS011;36118;56.468;84.952;2023-06-14T19:41:20;5.65;;;2.72;;
50231;SDS011;36118;56.468;84.952;2023-06-14T19:46:23;4.45;;;2.78;;
50231;SDS011;36118;56.468;84.952;2023-06-14T19:51:28;5.43;;;2.90;;
50231;SDS011;36118;56.468;84.952;2023-06-14T19:56:34;6.18;;;3.13;;
50231;SDS011;36118;56.468;84.952;2023-06-14T20:01:37;5.07;;;2.42;;
50231;SDS011;36118;56.468;84.952;2023-06-14T20:06:41;5.10;;;2.83;;
50231;SDS011;36118;56.468;84.952;2023-06-14T20:11:43;6.30;;;2.72;;
50231;SDS011;36118;56.468;84.952;2023-06-14T20:16:46;5.40;;;3.10;;
50231;SDS011;36118;56.468;84.952;2023-06-14T20:21:49;4.97;;;2.85;;
50231;SDS011;36118;56.468;84.952;2023-06-14T20:26:52;5.03;;;2.80;;
50231;SDS011;36118;56.468;84.952;2023-06-14T20:31:55;7.72;;;2.65;;
50231;SDS011;36118;56.468;84.952;2023-06-14T20:37:00;5.77;;;2.93;;
50231;SDS011;36118;56.468;84.952;2023-06-14T20:42:04;6.20;;;2.80;;
50231;SDS011;36118;56.468;84.952;2023-06-14T20:47:30;5.38;;;2.50;;
50231;SDS011;36118;56.468;84.952;2023-06-14T20:52:33;4.72;;;2.47;;
50231;SDS011;36118;56.468;84.952;2023-06-14T20:57:36;4.40;;;2.42;;
50231;SDS011;36118;56.468;84.952;2023-06-14T21:02:39;4.38;;;2.33;;
50231;SDS011;36118;56.468;84.952;2023-06-14T21:07:43;5.32;;;2.53;;
50231;SDS011;36118;56.468;84.952;2023-06-14T21:12:46;4.80;;;2.83;;
50231;SDS011;36118;56.468;84.952;2023-06-14T21:17:49;5.18;;;2.83;;
50231;SDS011;36118;56.468;84.952;2023-06-14T21:22:52;6.00;;;2.47;;
50231;SDS011;36118;56.468;84.952;2023-06-14T21:27:56;5.40;;;2.70;;
50231;SDS011;36118;56.468;84.952;2023-06-14T21:32:58;5.20;;;2.60;;
50231;SDS011;36118;56.468;84.952;2023-06-14T21:38:02;4.75;;;2.75;;
50231;SDS011;36118;56.468;84.952;2023-06-14T21:43:05;6.30;;;2.58;;
50231;SDS011;36118;56.468;84.952;2023-06-14T21:48:09;5.30;;;2.58;;
50231;SDS011;36118;56.468;84.952;2023-06-14T21:53:13;6.13;;;2.95;;
50231;SDS011;36118;56.468;84.952;2023-06-14T21:58:16;9.90;;;2.67;;
50231;SDS011;36118;56.468;84.952;2023-06-14T22:03:19;4.45;;;2.40;;
50231;SDS011;36118;56.468;84.952;2023-06-14T22:08:22;4.85;;;2.58;;
50231;SDS011;36118;56.468;84.952;2023-06-14T22:13:29;8.23;;;2.50;;
50231;SDS011;36118;56.468;84.952;2023-06-14T22:18:34;7.22;;;2.83;;
50231;SDS011;36118;56.468;84.952;2023-06-14T22:23:39;6.38;;;2.83;;
50231;SDS011;36118;56.468;84.952;2023-06-14T22:28:43;4.18;;;2.55;;
50231;SDS011;36118;56.468;84.952;2023-06-14T22:33:48;6.47;;;2.83;;
50231;SDS011;36118;56.468;84.952;2023-06-14T22:38:54;6.03;;;2.78;;
50231;SDS011;36118;56.468;84.952;2023-06-14T22:43:58;5.47;;;2.60;;
50231;SDS011;36118;56.468;84.952;2023-06-14T22:49:01;5.25;;;2.60;;
50231;SDS011;36118;56.468;84.952;2023-06-14T22:54:05;6.18;;;2.83;;
50231;SDS011;36118;56.468;84.952;2023-06-14T22:59:08;5.97;;;3.05;;
50231;SDS011;36118;56.468;84.952;2023-06-14T23:04:11;7.85;;;2.80;;
50231;SDS011;36118;56.468;84.952;2023-06-14T23:09:14;6.55;;;3.15;;
50231;SDS011;36118;56.468;84.952;2023-06-14T23:14:17;4.78;;;3.38;;
50231;SDS011;36118;56.468;84.952;2023-06-14T23:19:20;7.60;;;3.22;;
50231;SDS011;36118;56.468;84.952;2023-06-14T23:24:25;6.13;;;3.20;;
50231;SDS011;36118;56.468;84.952;2023-06-14T23:29:30;5.57;;;3.00;;
50231;SDS011;36118;56.468;84.952;2023-06-14T23:34:36;5.05;;;3.42;;
50231;SDS011;36118;56.468;84.952;2023-06-14T23:39:39;5.22;;;3.22;;
50231;SDS011;36118;56.468;84.952;2023-06-14T23:44:51;8.60;;;3.10;;
50231;SDS011;36118;56.468;84.952;2023-06-14T23:49:53;4.55;;;3.00;;
50231;SDS011;36118;56.468;84.952;2023-06-14T23:54:57;8.55;;;2.83;;
